Neder Vindinge, Denmark
Current Conditions -  °F | °C
As of 8:50 PM on Tuesday 21 Oct 2014 (Local Time) from EKRK Reporting Station
Light Rain Light Rain  
Wind Chill: 54°   Ceiling: 6500
Heat Index: 54°   Visibility: 4mi
Dew Point: 52°   Wind: 12mph
Humidity: 94%   Direction: 150°SSE
Pressure: 29.38"   Gusts: NA
Location:  55.03°N, 11.88°E
Report Text: EKRK 211850Z AUTO 15010KT 7000NDV -RA FEW005/// SCT011///BKN065/// 12/11 Q0995
Loading
Personal Weather Stations






























Interactive Weather Map New forecast layout! Learn more

10-Day Weather Forecast

Advertisements
Track Severe Weather on mobile